Un Marmara — TCCU8 — position and weather

sailwx.info

Track history (hours):
 
Tides and Currents Weather Stations Pressure Air Temp Water Temp Dewpoint Dewpoint Depression Visibility Wind Speed Wind Dir Waves Ship Positions

Un Marmara

Last reported at 2017-Nov-22 23:39 UTC. Time now 2017-Nov-24 02:08 UTC.
Position N 36°36' E 023°24'.

Length 193 m; draft 6.8 m.

Type: Ship (hazmat cat A). MMSI: 271000748.

Date/timePositionNaut miles runAvg speedWind from/ knotsBaromVisibWave heightAir tempDewpointWater temp
2017-Nov-22 23:39N 36°36' E 023°24'1720.2
2017-Nov-22 22:47N 36°50' E 023°37'620.0
2017-Nov-22 22:30N 36°54' E 023°42'1019.9
2017-Nov-22 22:01N 37°02' E 023°50'1019.7
2017-Nov-22 21:31N 37°09' E 023°58'1019.9
2017-Nov-22 21:00N 37°17' E 024°06'1019.7
2017-Nov-22 20:30N 37°24' E 024°14'1020.1
2017-Nov-22 20:00N 37°32' E 024°22'1019.8
2017-Nov-22 19:31N 37°41' E 024°28'  
2017-Nov-18 09:36N 44°11' E 013°56'218.7
2017-Nov-18 09:30N 44°12' E 013°55'918.5
2017-Nov-18 09:00N 44°20' E 013°48'918.4
2017-Nov-18 08:30N 44°28' E 013°41'918.4
2017-Nov-18 08:00N 44°36' E 013°35'918.3
2017-Nov-18 07:30N 44°44' E 013°28'918.3
2017-Nov-18 07:00N 44°52' E 013°21'918.1
2017-Nov-18 06:30N 44°59' E 013°14'918.2
2017-Nov-18 06:00N 45°07' E 013°08'918.1
2017-Nov-18 05:30N 45°16' E 013°04'917.0
2017-Nov-18 05:00N 45°24' E 013°06'918.6
2017-Nov-18 04:30N 45°30' E 013°16'918.4
2017-Nov-18 04:00N 45°35' E 013°27'918.4
2017-Nov-18 03:30N 45°39' E 013°39'4 8.1
2017-Nov-18 02:59N 45°39' E 013°45'0 0.0
2017-Nov-18 02:28N 45°39' E 013°45'0 0.0
2017-Nov-18 02:00N 45°39' E 013°45'0 0.0
2017-Nov-18 01:30N 45°39' E 013°45'0 0.0
2017-Nov-18 01:00N 45°39' E 013°45'0 0.0
2017-Nov-18 00:30N 45°39' E 013°45'0 0.0
2017-Nov-18 00:00N 45°39' E 013°45'0 0.0
2017-Nov-17 23:30N 45°39' E 013°45'0 0.0
2017-Nov-17 23:00N 45°39' E 013°45'0 0.0
2017-Nov-17 22:30N 45°39' E 013°45'0 0.0
2017-Nov-17 22:00N 45°39' E 013°45'0 0.0
2017-Nov-17 21:30N 45°39' E 013°45'0 0.0
2017-Nov-17 21:00N 45°39' E 013°45'0 0.0
2017-Nov-17 20:30N 45°39' E 013°45'0 0.0
2017-Nov-17 20:00N 45°39' E 013°45'0 0.0
2017-Nov-17 19:30N 45°39' E 013°45'0 0.0
2017-Nov-17 19:00N 45°39' E 013°45'0 0.0
2017-Nov-17 18:30N 45°39' E 013°45'0 0.0
2017-Nov-17 18:00N 45°39' E 013°45'0 0.0
2017-Nov-17 17:30N 45°39' E 013°45'0 0.0
2017-Nov-17 17:00N 45°39' E 013°45'0 0.2
2017-Nov-17 16:30N 45°39' E 013°45'611.4
2017-Nov-17 16:00N 45°38' E 013°37'917.8
2017-Nov-17 15:30N 45°32' E 013°27'917.5
2017-Nov-17 15:00N 45°27' E 013°17'816.8
2017-Nov-17 14:30N 45°18' E 013°14'918.7
2017-Nov-17 14:00N 45°09' E 013°18'918.7
2017-Nov-17 13:30N 45°01' E 013°22'918.6
2017-Nov-17 13:00N 44°53' E 013°29'918.6
2017-Nov-17 12:30N 44°45' E 013°36'918.5
2017-Nov-17 12:00N 44°37' E 013°42'918.1
2017-Nov-17 11:30N 44°29' E 013°49'918.3
2017-Nov-17 11:00N 44°22' E 013°56'918.6
2017-Nov-17 10:30N 44°14' E 014°04'61916.6
2017-Nov-15 21:16N 37°03' E 023°51'32613.2
2017-Nov-14 20:40N 40°52' E 028°49'318.3
2017-Nov-14 20:31N 40°51' E 028°52'1018.3
2017-Nov-14 19:59N 40°49' E 029°04'816.8
2017-Nov-14 19:30N 40°51' E 029°14'1 3.0
2017-Nov-14 19:01N 40°51' E 029°16'0 0.0
2017-Nov-14 18:26N 40°51' E 029°16'0 0.0
2017-Nov-14 17:49N 40°51' E 029°16'0 0.0
2017-Nov-14 17:25N 40°51' E 029°16'0 0.0
2017-Nov-14 16:55N 40°51' E 029°16'0 0.0
2017-Nov-14 16:13N 40°51' E 029°16'0 0.0
2017-Nov-14 15:54N 40°51' E 029°16'0 0.0
2017-Nov-14 15:24N 40°51' E 029°16'0 0.0
2017-Nov-14 14:54N 40°51' E 029°16'0 0.0
2017-Nov-14 14:30N 40°51' E 029°16'0 0.0
2017-Nov-14 14:00N 40°51' E 029°16'0 0.0
2017-Nov-14 13:29N 40°51' E 029°16'0 0.0
2017-Nov-14 12:59N 40°51' E 029°16'0 0.0
2017-Nov-14 12:29N 40°51' E 029°16'0 0.0
2017-Nov-14 11:35N 40°51' E 029°16'0 0.0
2017-Nov-14 11:29N 40°51' E 029°16'0 0.0
2017-Nov-14 10:58N 40°51' E 029°16'0 0.0
2017-Nov-14 10:22N 40°51' E 029°16'0 0.0
2017-Nov-14 09:46N 40°51' E 029°16'0 0.0
2017-Nov-14 09:28N 40°51' E 029°16'0 0.0
2017-Nov-14 08:57N 40°51' E 029°16'0 0.0
2017-Nov-14 08:21N 40°51' E 029°16'0 0.0
2017-Nov-14 07:57N 40°51' E 029°16'0 0.0
2017-Nov-14 07:27N 40°51' E 029°16'0 0.0
2017-Nov-14 06:57N 40°51' E 029°16'0 0.0
2017-Nov-14 06:26N 40°51' E 029°16'0 0.0
2017-Nov-14 05:56N 40°51' E 029°16'0 0.0
2017-Nov-14 05:20N 40°51' E 029°16'0 0.0
2017-Nov-14 04:56N 40°51' E 029°16'0 0.0
2017-Nov-14 04:26N 40°51' E 029°16'0 0.0
2017-Nov-14 03:55N 40°51' E 029°16'0 0.0
2017-Nov-14 03:25N 40°51' E 029°16'0 0.0
2017-Nov-14 02:59N 40°51' E 029°16'0 0.0
2017-Nov-14 02:25N 40°51' E 029°16'0 0.0
2017-Nov-14 02:00N 40°51' E 029°16'0 0.0
2017-Nov-14 01:30N 40°51' E 029°16'0 0.0
2017-Nov-14 01:00N 40°51' E 029°16'0 0.0
2017-Nov-14 00:30N 40°51' E 029°16'0 0.0
2017-Nov-14 00:00N 40°51' E 029°16'0 0.0
2017-Nov-13 23:29N 40°51' E 029°16'0 0.0
2017-Nov-13 22:59N 40°51' E 029°16'0 0.0
2017-Nov-13 22:29N 40°51' E 029°16'0 0.0
2017-Nov-13 21:59N 40°51' E 029°16'  
Track history (hours):
 
Tides and Currents Weather Stations Pressure Air Temp Water Temp Dewpoint Dewpoint Depression Visibility Wind Speed Wind Dir Waves Ship Positions

Un Marmara

Last reported at 2017-Nov-22 23:39 UTC. Time now 2017-Nov-24 02:08 UTC.
Position N 36°36' E 023°24'.

Length 193 m; draft 6.8 m.

Type: Ship (hazmat cat A). MMSI: 271000748.

Date/timePositionNaut miles runAvg speedWind from/ knotsBaromVisibWave heightAir tempDewpointWater temp
2017-Nov-22 23:39N 36°36' E 023°24'1720.2
2017-Nov-22 22:47N 36°50' E 023°37'620.0
2017-Nov-22 22:30N 36°54' E 023°42'1019.9
2017-Nov-22 22:01N 37°02' E 023°50'1019.7
2017-Nov-22 21:31N 37°09' E 023°58'1019.9
2017-Nov-22 21:00N 37°17' E 024°06'1019.7
2017-Nov-22 20:30N 37°24' E 024°14'1020.1
2017-Nov-22 20:00N 37°32' E 024°22'1019.8
2017-Nov-22 19:31N 37°41' E 024°28'  
2017-Nov-18 09:36N 44°11' E 013°56'218.7
2017-Nov-18 09:30N 44°12' E 013°55'918.5
2017-Nov-18 09:00N 44°20' E 013°48'918.4
2017-Nov-18 08:30N 44°28' E 013°41'918.4
2017-Nov-18 08:00N 44°36' E 013°35'918.3
2017-Nov-18 07:30N 44°44' E 013°28'918.3
2017-Nov-18 07:00N 44°52' E 013°21'918.1
2017-Nov-18 06:30N 44°59' E 013°14'918.2
2017-Nov-18 06:00N 45°07' E 013°08'918.1
2017-Nov-18 05:30N 45°16' E 013°04'917.0
2017-Nov-18 05:00N 45°24' E 013°06'918.6
2017-Nov-18 04:30N 45°30' E 013°16'918.4
2017-Nov-18 04:00N 45°35' E 013°27'918.4
2017-Nov-18 03:30N 45°39' E 013°39'4 8.1
2017-Nov-18 02:59N 45°39' E 013°45'0 0.0
2017-Nov-18 02:28N 45°39' E 013°45'0 0.0
2017-Nov-18 02:00N 45°39' E 013°45'0 0.0
2017-Nov-18 01:30N 45°39' E 013°45'0 0.0
2017-Nov-18 01:00N 45°39' E 013°45'0 0.0
2017-Nov-18 00:30N 45°39' E 013°45'0 0.0
2017-Nov-18 00:00N 45°39' E 013°45'0 0.0
2017-Nov-17 23:30N 45°39' E 013°45'0 0.0
2017-Nov-17 23:00N 45°39' E 013°45'0 0.0
2017-Nov-17 22:30N 45°39' E 013°45'0 0.0
2017-Nov-17 22:00N 45°39' E 013°45'0 0.0
2017-Nov-17 21:30N 45°39' E 013°45'0 0.0
2017-Nov-17 21:00N 45°39' E 013°45'0 0.0
2017-Nov-17 20:30N 45°39' E 013°45'0 0.0
2017-Nov-17 20:00N 45°39' E 013°45'0 0.0
2017-Nov-17 19:30N 45°39' E 013°45'0 0.0
2017-Nov-17 19:00N 45°39' E 013°45'0 0.0
2017-Nov-17 18:30N 45°39' E 013°45'0 0.0
2017-Nov-17 18:00N 45°39' E 013°45'0 0.0
2017-Nov-17 17:30N 45°39' E 013°45'0 0.0
2017-Nov-17 17:00N 45°39' E 013°45'0 0.2
2017-Nov-17 16:30N 45°39' E 013°45'611.4
2017-Nov-17 16:00N 45°38' E 013°37'917.8
2017-Nov-17 15:30N 45°32' E 013°27'917.5
2017-Nov-17 15:00N 45°27' E 013°17'816.8
2017-Nov-17 14:30N 45°18' E 013°14'918.7
2017-Nov-17 14:00N 45°09' E 013°18'918.7
2017-Nov-17 13:30N 45°01' E 013°22'918.6
2017-Nov-17 13:00N 44°53' E 013°29'918.6
2017-Nov-17 12:30N 44°45' E 013°36'918.5
2017-Nov-17 12:00N 44°37' E 013°42'918.1
2017-Nov-17 11:30N 44°29' E 013°49'918.3
2017-Nov-17 11:00N 44°22' E 013°56'918.6
2017-Nov-17 10:30N 44°14' E 014°04'61916.6
2017-Nov-15 21:16N 37°03' E 023°51'32613.2
2017-Nov-14 20:40N 40°52' E 028°49'318.3
2017-Nov-14 20:31N 40°51' E 028°52'1018.3
2017-Nov-14 19:59N 40°49' E 029°04'816.8
2017-Nov-14 19:30N 40°51' E 029°14'1 3.0
2017-Nov-14 19:01N 40°51' E 029°16'0 0.0
2017-Nov-14 18:26N 40°51' E 029°16'0 0.0
2017-Nov-14 17:49N 40°51' E 029°16'0 0.0
2017-Nov-14 17:25N 40°51' E 029°16'0 0.0
2017-Nov-14 16:55N 40°51' E 029°16'0 0.0
2017-Nov-14 16:13N 40°51' E 029°16'0 0.0
2017-Nov-14 15:54N 40°51' E 029°16'0 0.0
2017-Nov-14 15:24N 40°51' E 029°16'0 0.0
2017-Nov-14 14:54N 40°51' E 029°16'0 0.0
2017-Nov-14 14:30N 40°51' E 029°16'0 0.0
2017-Nov-14 14:00N 40°51' E 029°16'0 0.0
2017-Nov-14 13:29N 40°51' E 029°16'0 0.0
2017-Nov-14 12:59N 40°51' E 029°16'0 0.0
2017-Nov-14 12:29N 40°51' E 029°16'0 0.0
2017-Nov-14 11:35N 40°51' E 029°16'0 0.0
2017-Nov-14 11:29N 40°51' E 029°16'0 0.0
2017-Nov-14 10:58N 40°51' E 029°16'0 0.0
2017-Nov-14 10:22N 40°51' E 029°16'0 0.0
2017-Nov-14 09:46N 40°51' E 029°16'0 0.0
2017-Nov-14 09:28N 40°51' E 029°16'0 0.0
2017-Nov-14 08:57N 40°51' E 029°16'0 0.0
2017-Nov-14 08:21N 40°51' E 029°16'0 0.0
2017-Nov-14 07:57N 40°51' E 029°16'0 0.0
2017-Nov-14 07:27N 40°51' E 029°16'0 0.0
2017-Nov-14 06:57N 40°51' E 029°16'0 0.0
2017-Nov-14 06:26N 40°51' E 029°16'0 0.0
2017-Nov-14 05:56N 40°51' E 029°16'0 0.0
2017-Nov-14 05:20N 40°51' E 029°16'0 0.0
2017-Nov-14 04:56N 40°51' E 029°16'0 0.0
2017-Nov-14 04:26N 40°51' E 029°16'0 0.0
2017-Nov-14 03:55N 40°51' E 029°16'0 0.0
2017-Nov-14 03:25N 40°51' E 029°16'0 0.0
2017-Nov-14 02:59N 40°51' E 029°16'0 0.0
2017-Nov-14 02:25N 40°51' E 029°16'0 0.0
2017-Nov-14 02:00N 40°51' E 029°16'0 0.0
2017-Nov-14 01:30N 40°51' E 029°16'0 0.0
2017-Nov-14 01:00N 40°51' E 029°16'0 0.0
2017-Nov-14 00:30N 40°51' E 029°16'0 0.0
2017-Nov-14 00:00N 40°51' E 029°16'0 0.0
2017-Nov-13 23:29N 40°51' E 029°16'0 0.0
2017-Nov-13 22:59N 40°51' E 029°16'0 0.0
2017-Nov-13 22:29N 40°51' E 029°16'0 0.0
2017-Nov-13 21:59N 40°51' E 029°16'  

Dump ship's entire track history